Latest Weather Observations for Julia Creek

IDQ60801

Issued at 7:22 pm EST Sunday 29 March 2020 (issued every 10 minutes, with the page automatically refreshed every 10 minutes)

About weather observations | Map of weather stations | Latest weather observations for QLD | Other Formats
Station Details ID: 029058 Name: JULIA CREEK AIRPORT Lat: -20.67 Lon: 141.72 Height: 122.5 m
Data from the previous 72 hours. | See also: Recent months at Julia Creek
Date/Time
EST
Temp
°C
App
Temp
°C
Dew
Point
°C
Rel
Hum
%
Delta-T
°C
Wind Press
QNH
hPa
Press
MSL
hPa
Rain since
9am
mm
Dir  Spd
km/h
Gust
km/h
Spd
kts
Gust
kts
29/07:00pm 31.6 28.8 8.6 24 12.9 ESE 13 13 7 7 1009.5 1008.7 0.0
29/06:30pm 34.1 31.3 8.7 21 14.4 ESE 13 20 7 11 1009.1 1008.3 0.0
29/06:00pm 35.9 31.6 7.9 18 15.8 ESE 20 28 11 15 1008.8 1008.0 0.0
29/05:30pm 36.9 32.8 8.7 18 16.2 SE 20 30 11 16 1008.6 1007.8 0.0
29/05:00pm 37.2 33.2 8.1 17 16.6 E 19 30 10 16 1008.6 1007.8 0.0
29/04:30pm 37.7 33.2 8.5 17 16.8 ESE 22 30 12 16 1008.4 1007.6 0.0
29/04:00pm 38.0 33.9 8.7 17 16.9 ESE 20 35 11 19 1008.4 1007.6 0.0
29/03:30pm 38.1 34.7 11.2 20 16.1 ESE 20 35 11 19 1008.6 1007.8 0.0
29/03:00pm 37.8 35.7 11.0 20 16.0 ESE 13 32 7 17 1008.9 1008.1 0.0
29/02:30pm 36.8 33.5 10.9 21 15.4 S 19 30 10 16 1009.2 1008.4 0.0
29/02:00pm 37.0 34.5 12.4 23 14.9 SE 17 28 9 15 1009.9 1009.1 0.0
29/01:30pm 35.8 34.9 12.7 25 14.0 ESE 9 17 5 9 1010.3 1009.5 0.0
29/01:00pm 36.1 34.8 13.6 26 13.9 E 13 20 7 11 1010.8 1010.0 0.0
29/12:30pm 36.0 36.4 15.2 29 13.1 NE 7 15 4 8 1011.4 1010.6 0.0
29/12:00pm 34.6 34.5 15.0 31 12.2 ENE 9 17 5 9 1011.9 1011.1 0.0
29/11:30am 33.5 33.2 15.5 34 11.3 E 11 17 6 9 1012.3 1011.5 0.0
29/11:00am 33.4 33.4 16.3 36 10.8 ENE 11 20 6 11 1012.6 1011.8 0.0
29/10:30am 32.3 31.9 16.2 38 10.2 NE 13 24 7 13 1012.9 1012.1 0.0
29/10:00am 31.2 31.3 16.4 41 9.3 NE 11 17 6 9 1013.3 1012.5 0.0
29/09:30am 30.4 30.2 16.8 44 8.6 NE 13 20 7 11 1013.3 1012.5 0.0
29/09:00am 29.6 28.8 17.1 47 7.9 NE 17 24 9 13 1013.2 1012.4 0.0
29/08:30am 27.8 27.5 16.4 50 7.1 ENE 13 24 7 13 1012.7 1011.9 0.0
29/08:00am 25.9 25.9 16.2 55 6.0 E 11 15 6 8 1012.4 1011.6 0.0
29/07:30am 23.4 23.7 14.9 59 5.1 E 7 9 4 5 1012.1 1011.3 0.0
29/07:00am 20.6 19.9 13.3 63 4.2 E 9 11 5 6 1011.8 1011.0 0.0
29/06:30am 20.8 20.1 13.3 62 4.3 E 9 11 5 6 1011.5 1010.7 0.0
29/06:00am 21.2 20.1 13.1 60 4.7 E 11 11 6 6 1011.2 1010.4 0.0
29/05:30am 21.8 20.8 13.4 59 4.9 E 11 15 6 8 1010.8 1010.0 0.0
29/05:00am 22.2 21.2 13.3 57 5.2 E 11 13 6 7 1010.5 1009.7 0.0
29/04:30am 22.7 21.7 13.5 56 5.4 E 11 13 6 7 1010.3 1009.5 0.0
29/04:00am 23.3 21.8 13.2 53 5.9 E 13 13 7 7 1010.1 1009.3 0.0
29/03:30am 24.0 22.8 12.9 50 6.4 E 11 13 6 7 1010.0 1009.2 0.0
29/03:00am 24.9 23.3 12.8 47 7.0 E 13 17 7 9 1010.1 1009.3 0.0
29/02:30am 25.4 23.7 12.6 45 7.4 ESE 13 17 7 9 1010.2 1009.4 0.0
29/02:00am 25.0 23.1 11.9 44 7.5 ESE 13 15 7 8 1010.4 1009.6 0.0
29/01:30am 25.5 23.3 12.0 43 7.8 ESE 15 17 8 9 1010.4 1009.6 0.0
29/01:00am 26.2 24.3 11.9 41 8.2 ESE 13 17 7 9 1010.6 1009.8 0.0
29/12:30am 26.2 24.1 12.3 42 8.1 ESE 15 19 8 10 1010.8 1010.0 0.0
29/12:00am 24.6 22.8 12.2 46 7.1 SE 13 15 7 8 1010.9 1010.1 0.0
 
Date/Time
EST
Temp
°C
App
Temp
°C
Dew
Point
°C
Rel
Hum
%
Delta-T
°C
Wind Press
QNH
hPa
Press
MSL
hPa
Rain since
9am
mm
Dir  Spd
km/h
Gust
km/h
Spd
kts
Gust
kts
28/11:30pm 25.2 23.1 12.4 45 7.4 SE 15 17 8 9 1010.9 1010.1 0.0
28/11:00pm 25.5 23.9 12.7 45 7.5 SE 13 15 7 8 1010.9 1010.1 0.0
28/10:30pm 26.6 24.9 12.3 41 8.3 SE 13 15 7 8 1011.0 1010.2 0.0
28/10:00pm 26.7 26.1 13.4 43 7.9 SE 9 11 5 6 1011.1 1010.3 0.0
28/09:30pm 27.2 25.7 14.2 44 7.8 SE 15 15 8 8 1010.9 1010.1 0.0
28/09:00pm 27.9 27.4 15.9 48 7.4 SE 13 13 7 7 1010.5 1009.7 0.0
28/08:30pm 29.0 28.3 15.5 44 8.3 SE 13 19 7 10 1010.1 1009.3 0.0
28/08:00pm 30.2 30.9 16.2 42 8.8 SE 7 11 4 6 1009.9 1009.1 0.0
28/07:40pm 28.7 24.7 16.6 48 7.6 SE 33 57 18 31 1009.8 1009.0 0.0
28/07:35pm 32.3 29.8 14.0 33 11.2 ESE 20 48 11 26 1009.7 1008.9 0.0
28/07:30pm 31.9 29.6 11.7 29 11.9 E 15 20 8 11 1009.5 1008.7 0.0
28/07:00pm 32.6 30.5 11.2 27 12.6 E 13 15 7 8 1009.0 1008.2 0.0
28/06:30pm 34.6 31.5 11.7 25 13.6 E 19 26 10 14 1008.6 1007.8 0.0
28/06:00pm 35.7 32.5 11.4 23 14.5 ESE 19 24 10 13 1008.5 1007.7 0.0
28/05:30pm 36.4 32.8 10.6 21 15.2 E 20 28 11 15 1008.4 1007.6 0.0
28/05:00pm 37.2 33.8 10.5 20 15.8 ESE 19 28 10 15 1008.4 1007.6 0.0
28/04:30pm 36.9 33.8 10.2 20 15.7 ESE 17 32 9 17 1008.4 1007.6 0.0
28/04:00pm 35.7 32.5 11.4 23 14.5 SE 19 26 10 14 1008.6 1007.8 0.0
28/03:30pm 37.4 34.0 11.4 21 15.6 SE 20 30 11 16 1008.9 1008.1 0.0
28/03:00pm 37.1 33.1 11.8 22 15.2 SE 24 35 13 19 1009.3 1008.5 0.0
28/02:30pm 37.0 35.5 14.3 26 14.2 SE 15 24 8 13 1009.7 1008.9 0.0
28/02:00pm 36.1 34.4 13.6 26 13.9 ESE 15 24 8 13 1010.2 1009.4 0.0
28/01:30pm 36.2 33.9 14.2 26 13.7 ESE 19 35 10 19 1010.6 1009.8 0.0
28/01:00pm 35.3 34.3 15.6 31 12.4 ENE 15 26 8 14 1011.4 1010.6 0.0
28/12:30pm 34.9 33.7 16.2 32 11.9 ESE 17 33 9 18 1012.1 1011.3 0.0
28/12:00pm 35.0 34.5 16.8 34 11.7 E 15 26 8 14 1012.6 1011.8 0.0
28/11:30am 33.7 33.1 16.6 36 10.9 E 15 24 8 13 1013.2 1012.4 0.0
28/11:00am 32.5 31.8 16.3 37 10.2 NE 15 22 8 12 1013.7 1012.9 0.0
28/10:30am 32.1 31.9 16.8 40 9.7 ENE 13 20 7 11 1014.2 1013.3 0.0
28/10:00am 31.9 32.9 17.8 43 9.1 NE 9 15 5 8 1014.2 1013.3 0.0
28/09:30am 30.5 31.0 16.5 43 8.8 NE 9 15 5 8 1014.2 1013.3 0.0
28/09:00am 29.8 28.8 14.7 39 9.2 E 13 15 7 8 1014.1 1013.2 0.0
28/08:30am 28.6 27.8 12.9 38 9.3 E 9 13 5 7 1013.6 1012.8 0.0
28/08:00am 26.4 24.8 12.8 43 8.0 ESE 13 15 7 8 1013.3 1012.5 0.0
28/07:30am 24.1 22.9 12.7 49 6.6 SSE 11 13 6 7 1012.8 1012.0 0.0
28/07:00am 21.7 20.2 12.0 54 5.5 SSE 11 13 6 7 1012.4 1011.6 0.0
28/06:30am 21.5 19.5 11.5 53 5.6 SSE 13 15 7 8 1011.9 1011.1 0.0
28/06:00am 21.5 19.9 11.5 53 5.6 SSE 11 13 6 7 1011.7 1010.9 0.0
28/05:30am 22.0 20.1 11.7 52 5.8 SSE 13 15 7 8 1011.4 1010.6 0.0
28/05:00am 21.9 19.8 11.3 51 5.9 SSW 13 15 7 8 1011.3 1010.5 0.0
28/04:30am 22.6 20.5 11.0 48 6.5 SW 13 17 7 9 1011.1 1010.3 0.0
28/04:00am 21.8 19.3 10.9 50 6.0 SSW 15 17 8 9 1010.7 1009.9 0.0
28/03:30am 22.2 20.4 11.0 49 6.2 ESE 11 13 6 7 1010.3 1009.5 0.0
28/03:00am 22.4 20.6 10.9 48 6.4 ESE 11 13 6 7 1010.3 1009.5 0.0
28/02:30am 22.5 20.2 10.3 46 6.7 ESE 13 13 7 7 1010.5 1009.7 0.0
28/02:00am 22.6 20.6 10.1 45 6.9 ESE 11 13 6 7 1010.6 1009.8 0.0
28/01:30am 23.1 20.6 9.8 43 7.3 ESE 13 15 7 8 1010.8 1010.0 0.0
28/01:00am 23.7 21.3 10.0 42 7.6 SE 13 13 7 7 1011.0 1010.2 0.0
28/12:30am 24.4 22.7 9.9 40 8.0 SE 9 11 5 6 1011.3 1010.5 0.0
28/12:00am 24.5 22.1 10.0 40 8.0 SE 13 15 7 8 1011.4 1010.6 0.0
 
Date/Time
EST
Temp
°C
App
Temp
°C
Dew
Point
°C
Rel
Hum
%
Delta-T
°C
Wind Press
QNH
hPa
Press
MSL
hPa
Rain since
9am
mm
Dir  Spd
km/h
Gust
km/h
Spd
kts
Gust
kts
27/11:30pm 25.1 23.1 10.2 39 8.3 ESE 11 13 6 7 1011.6 1010.8 0.0
27/11:00pm 25.7 23.3 9.9 37 8.8 ESE 13 15 7 8 1011.7 1010.9 0.0
27/10:30pm 26.0 23.6 10.2 37 8.8 ESE 13 15 7 8 1011.7 1010.9 0.0
27/10:00pm 26.7 24.3 10.0 35 9.3 ESE 13 15 7 8 1011.7 1010.9 0.0
27/09:30pm 27.4 24.9 9.7 33 9.9 E 13 15 7 8 1011.7 1010.9 0.0
27/09:00pm 28.5 26.3 10.7 33 10.2 SSE 13 15 7 8 1011.5 1010.7 0.0
27/08:30pm 28.5 25.8 10.2 32 10.4 SSE 15 17 8 9 1011.3 1010.5 0.0
27/08:00pm 29.5 26.6 9.6 29 11.2 SSE 15 15 8 8 1010.9 1010.1 0.0
27/07:30pm 30.9 28.4 9.7 27 12.0 SE 13 13 7 7 1010.5 1009.7 0.0
27/07:00pm 32.9 30.4 9.7 24 13.3 SE 13 17 7 9 1010.1 1009.3 0.0
27/06:30pm 35.1 31.4 9.5 21 14.8 SE 19 24 10 13 1009.8 1009.0 0.0
27/06:00pm 36.0 34.2 9.5 20 15.4 SE 9 11 5 6 1009.6 1008.8 0.0
27/05:30pm 36.1 32.2 9.6 20 15.4 SE 20 26 11 14 1009.5 1008.7 0.0
27/05:00pm 36.4 34.7 9.8 20 15.5 ESE 9 15 5 8 1009.4 1008.6 0.0
27/04:30pm 36.4 32.8 9.8 20 15.5 SE 19 28 10 15 1009.6 1008.8 0.0
27/04:00pm 37.4 35.0 9.9 19 16.1 SSE 13 20 7 11 1009.9 1009.1 0.0
27/03:30pm 37.4 36.3 10.7 20 15.8 ESE 7 13 4 7 1010.1 1009.3 0.0
27/03:00pm 37.1 34.8 10.4 20 15.8 ENE 13 22 7 12 1010.3 1009.5 0.0
27/02:30pm 36.9 34.4 11.0 21 15.4 ESE 15 26 8 14 1010.6 1009.8 0.0
27/02:00pm 37.0 35.3 12.4 23 14.9 E 13 22 7 12 1011.1 1010.3 0.0
27/01:30pm 36.2 34.5 12.4 24 14.4 ENE 13 22 7 12 1011.7 1010.9 0.0
27/01:00pm 36.1 33.6 12.3 24 14.4 E 17 28 9 15 1012.4 1011.6 0.0
27/12:30pm 35.4 33.9 13.0 26 13.6 E 13 24 7 13 1012.8 1012.0 0.0
27/12:00pm 35.1 32.9 13.3 27 13.3 ESE 17 26 9 14 1013.5 1012.7 0.0
27/11:30am 34.2 32.9 13.6 29 12.6 ENE 13 22 7 12 1014.1 1013.2 0.0
27/11:00am 34.2 33.0 14.1 29 12.4 ENE 13 22 7 12 1014.4 1013.5 0.0
27/10:30am 32.1 31.1 13.3 31 11.3 NE 11 19 6 10 1014.8 1013.9 0.0
27/10:00am 31.9 32.2 14.5 34 10.7 E 6 13 3 7 1015.0 1014.1 0.0
27/09:30am 30.5 30.0 13.7 35 10.1 ESE 9 15 5 8 1015.0 1014.1 0.0
27/09:00am 29.5 28.7 12.9 36 9.9 ESE 9 17 5 9 1015.0 1014.1 0.0
27/08:30am 28.0 26.2 12.0 37 9.3 SE 13 15 7 8 1014.9 1014.0 0.0
27/08:00am 26.4 24.6 12.1 41 8.3 SE 13 15 7 8 1014.7 1013.8 0.0
27/07:30am 23.1 22.0 12.1 50 6.3 S 9 11 5 6 1014.5 1013.6 0.0
27/07:00am 20.3 18.5 12.0 59 4.7 S 13 13 7 7 1014.1 1013.2 0.0
27/06:30am 20.0 18.5 11.8 59 4.6 S 11 13 6 7 1013.7 1012.9 0.0
27/06:00am 20.1 18.0 11.3 57 4.9 S 13 15 7 8 1013.5 1012.7 0.0
27/05:30am 20.3 18.6 11.2 56 5.0 SSE 11 13 6 7 1013.2 1012.4 0.0
27/05:00am 21.5 20.6 11.2 52 5.7 SSE 7 11 4 6 1012.8 1012.0 0.0
27/04:30am 21.7 19.7 11.4 52 5.8 SSE 13 17 7 9 1012.6 1011.8 0.0
27/04:00am 21.7 19.7 11.4 52 5.8 SE 13 13 7 7 1012.2 1011.4 0.0
27/03:30am 21.6 19.6 11.6 53 5.6 SE 13 17 7 9 1012.1 1011.3 0.0
27/03:00am 22.1 20.1 11.5 51 5.9 SE 13 13 7 7 1012.2 1011.4 0.0
27/02:30am 23.1 20.8 11.8 49 6.4 SE 15 17 8 9 1012.5 1011.7 0.0
27/02:00am 22.5 20.2 11.6 50 6.1 SSE 15 15 8 8 1012.8 1012.0 0.0
27/01:30am 23.2 21.6 11.6 48 6.6 ESE 11 13 6 7 1012.8 1012.0 0.0
27/01:00am 23.7 22.1 11.7 47 6.8 ESE 11 13 6 7 1012.9 1012.1 0.0
27/12:30am 24.1 22.1 11.4 45 7.2 E 13 15 7 8 1012.9 1012.1 0.0
27/12:00am 26.0 24.1 11.7 41 8.2 E 13 15 7 8 1013.0 1012.2 0.0
 
Date/Time
EST
Temp
°C
App
Temp
°C
Dew
Point
°C
Rel
Hum
%
Delta-T
°C
Wind Press
QNH
hPa
Press
MSL
hPa
Rain since
9am
mm
Dir  Spd
km/h
Gust
km/h
Spd
kts
Gust
kts
26/11:30pm 26.4 24.1 11.7 40 8.4 SE 15 15 8 8 1013.0 1012.2 0.0
26/11:00pm 26.9 24.6 11.8 39 8.7 SE 15 17 8 9 1013.1 1012.3 0.0
26/10:30pm 27.4 25.1 11.8 38 9.0 SE 15 17 8 9 1013.1 1012.3 0.0
26/10:00pm 28.6 26.0 12.1 36 9.6 SE 17 19 9 10 1013.1 1012.3 0.0
26/09:30pm 28.4 26.3 12.3 37 9.4 SE 15 17 8 9 1013.1 1012.3 0.0
26/09:00pm 28.4 26.5 11.9 36 9.6 SE 13 15 7 8 1012.9 1012.1 0.0
26/08:30pm 29.7 27.5 12.2 34 10.3 SE 15 17 8 9 1012.5 1011.7 0.0
26/08:00pm 30.3 28.1 12.2 33 10.7 SE 15 17 8 9 1012.2 1011.4 0.0
26/07:30pm 31.2 29.4 12.1 31 11.3 SE 13 15 7 8 1012.0 1011.2 0.0

Other formats

Comma delimited format used in spreadsheet applications
http://www.bom.gov.au/fwo/IDQ60801/IDQ60801.94337.axf

JavaScript Object Notation format (JSON) in row-major order
http://www.bom.gov.au/fwo/IDQ60801/IDQ60801.94337.json

Data quality

Most of these data are generated automatically and are frequently updated. Quality checks on data are not normally performed. It is possible for incorrect values to appear. Refer to information at About Latest Weather Observations and please check the disclaimer before using these data.